createdAt,value
2022-11-16T00:26:49.986Z,66.60
2022-11-16T00:29:19.641Z,66.90
2022-11-16T00:31:47.364Z,67.30
2022-11-16T00:34:14.687Z,67.10
2022-11-16T00:36:41.564Z,67.10
2022-11-16T00:39:13.610Z,67.20
2022-11-16T00:41:41.726Z,67.00
2022-11-16T00:44:08.918Z,67.00
2022-11-16T00:46:35.728Z,67.20
2022-11-16T00:49:02.578Z,67.20
2022-11-16T00:51:29.315Z,67.10
2022-11-16T00:53:56.074Z,67.20
2022-11-16T00:56:23.028Z,67.40
2022-11-16T00:58:50.034Z,67.20
2022-11-16T01:01:17.681Z,67.10
2022-11-16T01:03:44.555Z,67.20
2022-11-16T01:58:15.566Z,67.40
2022-11-16T02:00:42.330Z,67.50
2022-11-16T02:03:09.002Z,67.40
2022-11-16T02:06:10.548Z,67.50
2022-11-16T02:09:14.477Z,67.40
2022-11-16T02:12:02.029Z,67.30
2022-11-16T02:14:46.794Z,67.30
2022-11-16T02:17:52.667Z,67.30
2022-11-16T02:20:40.989Z,67.60
2022-11-16T02:23:54.938Z,67.50
2022-11-16T02:26:24.419Z,67.70
2022-11-16T02:29:13.171Z,67.30
2022-11-16T02:31:46.990Z,67.50
2022-11-16T02:34:17.252Z,67.50
2022-11-16T02:36:47.214Z,67.50
2022-11-16T02:39:19.147Z,67.60
2022-11-16T02:41:49.695Z,67.50
2022-11-16T02:44:20.879Z,67.40
2022-11-16T02:46:51.552Z,67.70
2022-11-16T02:49:19.490Z,67.50
2022-11-16T02:51:47.575Z,67.50
2022-11-16T02:54:19.910Z,67.60
2022-11-16T02:57:18.799Z,67.40
2022-11-16T02:59:50.413Z,67.50
2022-11-16T03:02:50.956Z,67.30
2022-11-16T03:05:41.119Z,67.20
2022-11-16T03:08:19.959Z,67.30
2022-11-16T03:11:10.100Z,67.30
2022-11-16T03:13:38.455Z,67.10
2022-11-16T03:16:12.119Z,67.10
2022-11-16T03:18:40.869Z,67.30
2022-11-16T03:21:30.488Z,67.40
2022-11-16T03:23:57.667Z,67.40
2022-11-16T03:26:31.995Z,67.20
2022-11-16T03:29:15.843Z,67.70
2022-11-16T03:31:50.024Z,67.00
2022-11-16T03:34:20.181Z,67.10
2022-11-16T03:36:50.387Z,67.10
2022-11-16T03:39:25.851Z,67.10
2022-11-16T03:41:54.652Z,67.00
2022-11-16T03:44:22.114Z,66.70
2022-11-16T03:46:49.912Z,66.50
2022-11-16T03:49:20.204Z,66.50
2022-11-16T03:51:46.982Z,66.60
2022-11-16T03:54:13.735Z,66.80
2022-11-16T03:56:40.466Z,66.70
2022-11-16T03:59:07.237Z,66.50
2022-11-16T04:01:33.910Z,66.40
2022-11-16T04:04:00.620Z,66.50
2022-11-16T04:06:46.300Z,66.60
2022-11-16T04:09:51.489Z,66.60
2022-11-16T04:12:36.641Z,66.50
2022-11-16T04:15:22.407Z,66.50
2022-11-16T04:18:07.864Z,66.40
2022-11-16T04:20:53.386Z,66.20
2022-11-16T04:23:39.012Z,66.10
2022-11-16T04:26:08.044Z,65.90
2022-11-16T04:28:35.702Z,65.70
2022-11-16T04:31:23.098Z,65.60
2022-11-16T05:04:40.097Z,66.00
2022-11-16T05:07:11.876Z,63.30
2022-11-16T05:09:49.427Z,63.20
2022-11-16T05:12:22.069Z,63.10
2022-11-16T05:14:49.082Z,62.90
2022-11-16T05:17:17.159Z,62.80
2022-11-16T05:20:02.399Z,62.80
2022-11-16T05:22:29.474Z,62.80
2022-11-16T05:24:56.139Z,62.70
2022-11-16T05:27:23.966Z,62.60
2022-11-16T05:29:51.387Z,62.30
2022-11-16T05:32:20.021Z,62.40
2022-11-16T05:34:46.667Z,62.20
2022-11-16T05:37:13.949Z,64.20
2022-11-16T05:39:40.788Z,62.40
2022-11-16T05:42:08.433Z,62.00
2022-11-16T05:44:35.199Z,61.90
2022-11-16T05:47:01.938Z,61.90
2022-11-16T05:49:28.820Z,62.00
2022-11-16T05:51:55.519Z,62.00
2022-11-16T05:54:24.939Z,62.20
2022-11-16T05:56:53.022Z,62.70
2022-11-16T05:59:21.211Z,63.00
2022-11-16T06:01:48.271Z,62.90
2022-11-16T06:04:15.366Z,62.90
2022-11-16T06:06:42.293Z,62.80
2022-11-16T06:09:11.718Z,62.60
2022-11-16T06:11:38.458Z,62.70
2022-11-16T06:14:05.607Z,62.70
2022-11-16T06:16:32.792Z,62.90
2022-11-16T06:19:00.077Z,62.70
2022-11-16T06:21:26.912Z,62.40
2022-11-16T06:23:53.745Z,62.40
2022-11-16T06:26:20.570Z,62.50
2022-11-16T06:28:47.362Z,62.60
2022-11-16T06:31:14.123Z,62.60
2022-11-16T06:33:40.915Z,62.70
2022-11-16T06:36:08.080Z,62.50
2022-11-16T06:38:35.060Z,62.50
2022-11-16T06:41:01.974Z,62.40
2022-11-16T06:43:28.850Z,62.00
2022-11-16T06:45:58.376Z,62.00
2022-11-16T06:48:25.430Z,62.30
2022-11-16T06:50:53.050Z,62.50
2022-11-16T06:53:23.472Z,62.50
2022-11-16T06:55:52.681Z,62.50
2022-11-16T06:58:19.319Z,62.50
2022-11-16T07:00:46.011Z,62.70
2022-11-16T07:03:12.696Z,62.80
2022-11-16T07:05:41.699Z,62.90
2022-11-16T07:08:09.018Z,62.90
2022-11-16T07:10:36.253Z,63.00
2022-11-16T07:13:03.691Z,63.20
2022-11-16T07:15:31.166Z,63.20
2022-11-16T07:18:03.478Z,63.20
2022-11-16T07:20:30.206Z,63.20
2022-11-16T07:22:59.833Z,63.10
2022-11-16T07:25:26.491Z,63.20
2022-11-16T07:27:53.181Z,63.30
2022-11-16T07:30:19.984Z,63.40
2022-11-16T07:32:46.623Z,63.40
2022-11-16T07:35:13.321Z,63.40
2022-11-16T07:37:39.964Z,64.10
2022-11-16T07:40:07.420Z,63.40
2022-11-16T07:42:34.066Z,63.30
2022-11-16T07:45:00.710Z,63.30
2022-11-16T07:47:27.386Z,63.40
2022-11-16T07:49:54.046Z,63.50
2022-11-16T07:52:20.739Z,63.40
2022-11-16T07:54:47.405Z,63.60
2022-11-16T07:57:14.069Z,63.60
2022-11-16T07:59:40.763Z,63.70
2022-11-16T08:02:08.854Z,63.90
2022-11-16T08:04:35.617Z,63.90
2022-11-16T08:07:02.399Z,64.10
2022-11-16T08:09:29.058Z,64.10
2022-11-16T08:11:55.760Z,64.20
2022-11-16T08:14:22.453Z,64.20
2022-11-16T08:16:49.116Z,64.50
2022-11-16T08:19:15.815Z,64.40
2022-11-16T08:21:42.484Z,64.50
2022-11-16T08:24:09.502Z,64.60
2022-11-16T08:26:36.275Z,64.60
2022-11-16T08:29:03.103Z,64.60
2022-11-16T08:31:30.096Z,64.80
2022-11-16T08:33:59.202Z,64.80
2022-11-16T08:36:27.043Z,65.00
2022-11-16T08:38:54.154Z,65.00
2022-11-16T08:41:20.991Z,65.10
2022-11-16T08:43:47.787Z,65.20
2022-11-16T08:46:15.693Z,65.30
2022-11-16T08:48:42.585Z,65.50
2022-11-16T08:51:20.367Z,65.60
2022-11-16T08:53:48.474Z,65.70
2022-11-16T08:56:17.779Z,65.70
2022-11-16T08:58:46.819Z,65.90
2022-11-16T09:01:16.968Z,66.00
2022-11-16T09:03:44.043Z,66.30
2022-11-16T09:06:11.814Z,66.30
2022-11-16T09:08:40.355Z,66.40
2022-11-16T09:11:08.863Z,66.40
2022-11-16T09:13:35.631Z,66.50
2022-11-16T09:16:04.524Z,66.40
2022-11-16T09:18:32.327Z,66.30
2022-11-16T09:20:59.416Z,66.50
2022-11-16T09:23:26.264Z,66.50
2022-11-16T09:25:53.523Z,66.40
2022-11-16T09:28:21.443Z,66.60
2022-11-16T09:30:51.100Z,66.70
2022-11-16T09:33:18.284Z,66.60
2022-11-16T09:35:45.112Z,66.60
2022-11-16T09:38:16.038Z,66.80
2022-11-16T09:40:47.824Z,66.90
2022-11-16T09:43:51.697Z,67.00
2022-11-16T09:46:23.851Z,67.40
2022-11-16T09:48:51.234Z,67.10
2022-11-16T09:51:21.034Z,66.90
2022-11-16T09:54:10.576Z,67.30
2022-11-16T09:56:40.322Z,66.60
2022-11-16T09:59:18.386Z,66.60
2022-11-16T10:01:51.263Z,66.60
2022-11-16T10:04:37.079Z,66.40
2022-11-16T10:07:16.374Z,66.30
2022-11-16T10:09:45.103Z,66.60
2022-11-16T10:12:22.065Z,66.70
2022-11-16T10:15:01.546Z,66.70
2022-11-16T10:18:06.761Z,67.10
2022-11-16T10:20:49.766Z,67.50
2022-11-16T10:23:36.102Z,67.70
2022-11-16T10:26:14.655Z,67.40
2022-11-16T10:29:10.238Z,66.70
2022-11-16T10:31:43.511Z,66.30
2022-11-16T10:34:18.565Z,66.30
2022-11-16T10:36:46.023Z,66.10
2022-11-16T10:39:14.959Z,65.50
2022-11-16T10:41:43.694Z,65.40
2022-11-16T10:44:14.739Z,65.70
2022-11-16T10:46:46.797Z,65.80
2022-11-16T10:49:22.036Z,66.00
2022-11-16T10:51:48.872Z,66.00
2022-11-16T10:54:17.639Z,65.30
2022-11-16T10:57:03.477Z,64.70
2022-11-16T10:59:44.983Z,64.30
2022-11-16T11:02:35.959Z,64.00
2022-11-16T11:05:20.373Z,63.90
2022-11-16T11:07:55.363Z,64.20
2022-11-16T11:10:33.199Z,64.40
2022-11-16T11:13:20.714Z,64.60
2022-11-16T11:15:50.374Z,65.60
2022-11-16T11:18:23.229Z,64.70
2022-11-16T11:21:14.769Z,63.90
2022-11-16T11:23:49.111Z,63.20
2022-11-16T11:26:40.516Z,63.50
2022-11-16T11:29:25.123Z,63.30
2022-11-16T11:31:57.100Z,63.50
2022-11-16T11:34:34.887Z,63.30
2022-11-16T11:37:03.595Z,62.80
2022-11-16T11:39:39.187Z,61.90
2022-11-16T11:42:15.135Z,62.30
2022-11-16T11:44:51.897Z,61.70
2022-11-16T11:50:19.647Z,61.40
2022-11-16T11:53:23.867Z,60.90
2022-11-16T11:55:58.140Z,61.60
2022-11-16T11:58:34.191Z,60.90
2022-11-16T12:01:26.010Z,61.60
2022-11-16T12:04:30.732Z,61.60
2022-11-16T12:07:00.796Z,61.10
2022-11-16T12:09:50.716Z,60.50
2022-11-16T12:12:30.494Z,59.50
2022-11-16T12:15:19.245Z,59.60
2022-11-16T12:17:51.766Z,59.80
2022-11-16T12:20:28.893Z,59.60
2022-11-16T12:23:17.126Z,59.80
2022-11-16T12:25:56.288Z,59.70
2022-11-16T12:28:32.849Z,59.80
2022-11-16T12:31:33.526Z,60.00
2022-11-16T12:34:44.514Z,59.50
2022-11-16T12:37:43.371Z,60.30
2022-11-16T12:40:15.903Z,59.90
2022-11-16T12:42:55.318Z,59.20
2022-11-16T12:45:46.279Z,59.40
2022-11-16T12:48:31.708Z,58.30
2022-11-16T12:51:31.603Z,58.50
2022-11-16T12:54:21.900Z,58.90
2022-11-16T12:57:16.619Z,58.70
2022-11-16T13:00:06.373Z,59.00
2022-11-16T13:02:38.824Z,58.20
2022-11-16T13:05:23.242Z,57.70
2022-11-16T13:07:58.096Z,58.00
2022-11-16T13:10:31.448Z,58.10
2022-11-16T13:15:51.657Z,58.40
2022-11-16T13:18:20.698Z,57.50
2022-11-16T13:21:04.825Z,56.30
2022-11-16T13:23:31.906Z,56.30
2022-11-16T13:26:10.420Z,56.80
2022-11-16T13:28:50.078Z,57.20
2022-11-16T13:31:28.799Z,57.00
2022-11-16T13:34:02.191Z,56.90
2022-11-16T13:36:40.508Z,56.40
2022-11-16T13:39:08.415Z,56.10
2022-11-16T13:41:37.777Z,55.90
2022-11-16T13:44:26.381Z,56.40
2022-11-16T13:47:04.789Z,55.80
2022-11-16T13:49:34.412Z,55.80
2022-11-16T13:52:40.410Z,57.20
2022-11-16T13:55:15.827Z,56.10
2022-11-16T13:57:51.423Z,56.60
2022-11-16T14:00:33.654Z,56.50
2022-11-16T14:03:15.181Z,56.60
2022-11-16T14:05:44.400Z,56.30
2022-11-16T14:08:19.990Z,56.20
2022-11-16T14:10:52.182Z,56.00
2022-11-16T14:13:47.362Z,57.20
2022-11-16T14:16:20.033Z,57.40
2022-11-16T14:18:47.482Z,56.90
2022-11-16T14:21:20.539Z,56.50
2022-11-16T14:23:56.302Z,57.00
2022-11-16T14:26:44.750Z,57.00
2022-11-16T14:29:11.323Z,56.80
2022-11-16T14:31:52.351Z,57.60
2022-11-16T14:34:41.616Z,56.70
2022-11-16T14:37:36.262Z,56.70
2022-11-16T14:40:16.736Z,57.20
2022-11-16T14:45:49.314Z,56.60
2022-11-16T14:48:19.204Z,57.10
2022-11-16T14:50:59.227Z,57.40
2022-11-16T14:53:27.676Z,57.40
2022-11-16T14:56:13.241Z,57.20
2022-11-16T14:58:40.236Z,57.60
2022-11-16T15:01:14.536Z,57.00
2022-11-16T15:03:52.703Z,57.30
2022-11-16T15:06:26.994Z,57.00
2022-11-16T15:08:59.238Z,57.20
2022-11-16T15:11:49.798Z,57.40
2022-11-16T15:14:26.678Z,57.50
2022-11-16T15:16:55.411Z,57.10
2022-11-16T15:19:24.545Z,57.10
2022-11-16T15:21:59.744Z,57.10
2022-11-16T15:24:34.165Z,57.20
2022-11-16T15:27:06.813Z,57.30
2022-11-16T15:29:33.512Z,57.20
2022-11-16T15:32:00.198Z,57.10
2022-11-16T15:34:26.958Z,57.10
2022-11-16T15:36:53.773Z,57.40
2022-11-16T15:39:23.803Z,57.30
2022-11-16T15:41:51.262Z,57.50
2022-11-16T15:44:21.288Z,57.60
2022-11-16T15:46:54.971Z,57.50
2022-11-16T15:49:31.196Z,57.40
2022-11-16T15:51:59.592Z,57.50
2022-11-16T15:54:53.734Z,57.40
2022-11-16T15:57:22.912Z,57.50
2022-11-16T15:59:55.163Z,57.50
2022-11-16T16:02:29.651Z,57.70
2022-11-16T16:04:56.731Z,57.50
2022-11-16T16:07:39.859Z,57.80
2022-11-16T16:10:19.025Z,57.70
2022-11-16T16:12:57.289Z,57.70
2022-11-16T16:15:25.451Z,58.30
2022-11-16T16:17:53.948Z,57.60
2022-11-16T16:20:24.408Z,57.60
2022-11-16T16:22:52.135Z,57.50
2022-11-16T16:25:36.115Z,57.60
2022-11-16T16:28:03.498Z,57.70
2022-11-16T16:30:31.523Z,57.80
2022-11-16T16:32:58.687Z,57.70
2022-11-16T16:35:26.542Z,57.90
2022-11-16T16:38:01.168Z,58.00
2022-11-16T16:40:28.803Z,57.90
2022-11-16T16:42:56.603Z,58.00
2022-11-16T16:45:37.084Z,58.50
2022-11-16T16:48:06.832Z,58.70
2022-11-16T16:50:33.644Z,59.10
2022-11-16T16:53:00.623Z,59.70
2022-11-16T16:55:27.880Z,59.80
2022-11-16T16:57:57.483Z,60.20
2022-11-16T17:00:24.510Z,60.30
2022-11-16T17:02:51.526Z,60.40
2022-11-16T17:05:18.275Z,61.00
2022-11-16T17:07:45.077Z,61.00
2022-11-16T17:10:11.753Z,61.00
2022-11-16T17:12:38.444Z,60.90
2022-11-16T17:15:05.580Z,60.80
2022-11-16T17:17:32.238Z,60.50
2022-11-16T17:19:59.014Z,60.30
2022-11-16T17:22:25.690Z,60.20
2022-11-16T17:24:52.370Z,60.00
2022-11-16T17:27:19.056Z,59.80
2022-11-16T17:29:45.690Z,59.80
2022-11-16T17:32:12.409Z,59.90
2022-11-16T17:34:41.378Z,59.70
2022-11-16T17:37:08.083Z,59.70
2022-11-16T17:39:35.338Z,59.70
2022-11-16T17:42:02.083Z,59.70
2022-11-16T17:44:28.789Z,59.60
2022-11-16T17:46:55.443Z,59.50
2022-11-16T17:49:22.148Z,59.30
2022-11-16T17:51:49.038Z,59.60
2022-11-16T17:54:15.775Z,59.40
2022-11-16T17:56:42.460Z,59.50
2022-11-16T17:59:09.232Z,59.50
2022-11-16T18:01:36.029Z,59.40
2022-11-16T18:04:03.039Z,59.30
2022-11-16T18:06:29.753Z,59.30
2022-11-16T18:08:57.101Z,59.40
2022-11-16T18:11:28.257Z,59.30
2022-11-16T18:13:57.049Z,59.40
2022-11-16T18:16:26.810Z,59.70
2022-11-16T18:18:59.044Z,59.70
2022-11-16T18:21:26.419Z,59.80
2022-11-16T18:23:53.103Z,59.90
2022-11-16T18:26:22.467Z,60.00
2022-11-16T18:28:50.478Z,60.00
2022-11-16T18:31:19.724Z,60.00
2022-11-16T18:33:49.057Z,59.80
2022-11-16T18:36:16.812Z,59.90
2022-11-16T18:38:43.625Z,60.10
2022-11-16T18:41:13.069Z,59.90
2022-11-16T18:43:41.269Z,59.90
2022-11-16T18:46:08.732Z,59.80
2022-11-16T18:48:35.563Z,59.80
2022-11-16T18:51:04.246Z,59.70
2022-11-16T18:53:32.083Z,59.70
2022-11-16T18:55:58.977Z,59.90
2022-11-16T19:01:16.003Z,59.70
2022-11-16T19:03:43.141Z,59.60
2022-11-16T19:06:11.792Z,59.60
2022-11-16T19:08:39.082Z,59.70
2022-11-16T19:11:08.694Z,59.90
2022-11-16T19:13:36.085Z,59.40
2022-11-16T19:16:03.213Z,59.60
2022-11-16T19:18:30.018Z,59.70
2022-11-16T19:21:08.175Z,59.60
2022-11-16T19:23:45.952Z,59.30
2022-11-16T19:26:14.875Z,59.60
2022-11-16T19:28:43.767Z,59.70
2022-11-16T19:31:13.028Z,59.40
2022-11-16T19:33:40.732Z,59.50
2022-11-16T19:36:09.996Z,59.30
2022-11-16T19:38:37.032Z,59.40
2022-11-16T19:41:04.389Z,59.30
2022-11-16T19:43:31.471Z,59.60
2022-11-16T19:46:24.841Z,59.60
2022-11-16T19:48:52.224Z,59.40
2022-11-16T19:51:29.361Z,59.40
2022-11-16T19:53:56.622Z,59.40
2022-11-16T19:56:24.072Z,59.30
2022-11-16T19:58:51.366Z,59.60
2022-11-16T20:01:25.451Z,59.60
2022-11-16T20:03:52.383Z,59.40
2022-11-16T20:06:24.979Z,59.40
2022-11-16T20:08:53.873Z,59.40
2022-11-16T20:11:26.194Z,59.50
2022-11-16T20:13:54.784Z,59.30
2022-11-16T20:16:23.327Z,59.70
2022-11-16T20:18:51.242Z,61.10
2022-11-16T20:21:29.159Z,59.60
2022-11-16T20:24:01.539Z,59.40
2022-11-16T20:26:33.781Z,59.70
2022-11-16T20:29:00.543Z,59.50
2022-11-16T20:31:29.860Z,59.40
2022-11-16T20:34:02.966Z,59.60
2022-11-16T20:36:31.039Z,59.20
2022-11-16T20:38:59.045Z,59.30
2022-11-16T20:41:30.419Z,59.70
2022-11-16T20:43:58.874Z,60.90
2022-11-16T20:46:27.779Z,62.00
2022-11-16T20:48:57.056Z,60.90
2022-11-16T20:51:23.785Z,60.50
2022-11-16T20:53:50.794Z,60.00
2022-11-16T20:56:19.273Z,59.90
2022-11-16T20:58:46.593Z,60.00
2022-11-16T21:01:15.983Z,59.70
2022-11-16T21:03:44.549Z,59.10
2022-11-16T21:06:12.175Z,59.40
2022-11-16T21:08:40.121Z,59.50
2022-11-16T21:11:11.801Z,59.10
2022-11-16T21:13:57.178Z,59.10
2022-11-16T21:16:23.936Z,59.90
2022-11-16T21:18:50.589Z,59.50
2022-11-16T21:21:17.229Z,59.40
2022-11-16T21:23:47.286Z,59.10
2022-11-16T21:26:15.161Z,58.80
2022-11-16T21:28:44.715Z,58.50
2022-11-16T21:31:17.638Z,59.60
2022-11-16T21:33:45.139Z,59.00
2022-11-16T21:36:17.132Z,58.80
2022-11-16T21:38:44.448Z,59.20
2022-11-16T21:41:13.405Z,59.20
2022-11-16T21:43:43.952Z,59.00
2022-11-16T21:46:30.025Z,58.80
2022-11-16T21:48:57.689Z,58.90
2022-11-16T21:51:26.823Z,58.90
2022-11-16T21:53:54.128Z,59.00
2022-11-16T21:56:23.997Z,59.20
2022-11-16T21:58:52.695Z,58.40
2022-11-16T22:01:19.766Z,59.60
2022-11-16T22:03:46.567Z,59.30
2022-11-16T22:06:34.145Z,59.30
2022-11-16T22:09:00.919Z,59.20
2022-11-16T22:11:28.046Z,59.40
2022-11-16T22:13:54.912Z,59.30
2022-11-16T22:16:23.332Z,59.50
2022-11-16T22:18:50.372Z,59.10
2022-11-16T22:21:17.307Z,59.90
2022-11-16T22:23:44.171Z,59.50
2022-11-16T22:26:13.382Z,60.40
2022-11-16T22:28:40.588Z,59.40
2022-11-16T22:31:14.896Z,59.30
2022-11-16T22:33:41.982Z,58.50
2022-11-16T22:36:13.238Z,60.00
2022-11-16T22:38:40.081Z,60.50
2022-11-16T22:41:06.945Z,59.70
2022-11-16T22:43:34.129Z,60.10
2022-11-16T22:46:03.129Z,59.40
2022-11-16T22:48:35.213Z,58.90
2022-11-16T22:51:14.904Z,59.20
2022-11-16T22:53:41.624Z,59.80
2022-11-16T22:56:09.981Z,60.40
2022-11-16T22:58:37.755Z,60.70
2022-11-16T23:01:08.674Z,60.60
2022-11-16T23:03:36.017Z,60.70
2022-11-16T23:06:03.982Z,61.00
2022-11-16T23:08:31.316Z,60.70
2022-11-16T23:11:22.389Z,61.30
2022-11-16T23:14:08.485Z,61.30
2022-11-16T23:16:36.024Z,61.80
2022-11-16T23:19:02.991Z,62.00
2022-11-16T23:21:48.493Z,63.10
2022-11-16T23:24:34.125Z,61.10
2022-11-16T23:27:22.954Z,61.60
2022-11-16T23:29:49.884Z,61.70
2022-11-16T23:32:16.628Z,63.60
2022-11-16T23:34:43.297Z,63.10
2022-11-16T23:37:09.954Z,62.90
2022-11-16T23:39:36.620Z,62.60
2022-11-16T23:42:22.266Z,62.30
2022-11-16T23:44:49.058Z,61.80
2022-11-16T23:47:15.901Z,61.60
2022-11-16T23:49:42.595Z,63.30
2022-11-16T23:52:09.330Z,63.10
2022-11-16T23:54:36.027Z,63.00
2022-11-16T23:57:02.911Z,62.50
2022-11-16T23:59:29.633Z,62.30
